sensor_id;sensor_type;location;lat;lon;timestamp;pressure;altitude;pressure_sealevel;temperature;humidity
82245;BME280;71849;50.096;14.458;2023-08-30T00:00:35;98708.56;;;16.59;69.92
82245;BME280;71849;50.096;14.458;2023-08-30T00:03:00;98708.44;;;16.35;70.38
82245;BME280;71849;50.096;14.458;2023-08-30T00:05:26;98712.19;;;16.45;70.68
82245;BME280;71849;50.096;14.458;2023-08-30T00:07:56;98715.88;;;16.35;71.02
82245;BME280;71849;50.096;14.458;2023-08-30T00:10:21;98710.75;;;16.18;71.48
82245;BME280;71849;50.096;14.458;2023-08-30T00:12:46;98718.19;;;16.18;71.70
82245;BME280;71849;50.096;14.458;2023-08-30T00:15:12;98716.88;;;16.10;71.90
82245;BME280;71849;50.096;14.458;2023-08-30T00:17:38;98722.25;;;16.25;71.71
82245;BME280;71849;50.096;14.458;2023-08-30T00:20:04;98720.53;;;16.34;70.96
82245;BME280;71849;50.096;14.458;2023-08-30T00:22:31;98726.25;;;16.43;70.61
82245;BME280;71849;50.096;14.458;2023-08-30T00:24:57;98725.81;;;16.65;70.06
82245;BME280;71849;50.096;14.458;2023-08-30T00:27:22;98723.53;;;16.38;71.17
82245;BME280;71849;50.096;14.458;2023-08-30T00:29:49;98722.47;;;16.34;71.11
82245;BME280;71849;50.096;14.458;2023-08-30T00:32:14;98731.31;;;16.65;70.57
82245;BME280;71849;50.096;14.458;2023-08-30T00:34:40;98735.47;;;16.62;70.49
82245;BME280;71849;50.096;14.458;2023-08-30T00:37:05;98732.75;;;16.57;70.74
82245;BME280;71849;50.096;14.458;2023-08-30T00:39:31;98731.66;;;16.53;70.35
82245;BME280;71849;50.096;14.458;2023-08-30T00:41:56;98732.63;;;16.33;71.10
82245;BME280;71849;50.096;14.458;2023-08-30T00:44:24;98719.88;;;16.09;72.00
82245;BME280;71849;50.096;14.458;2023-08-30T00:46:50;98728.31;;;16.61;70.57
82245;BME280;71849;50.096;14.458;2023-08-30T00:49:15;98726.81;;;16.40;71.32
82245;BME280;71849;50.096;14.458;2023-08-30T00:51:41;98720.50;;;16.39;71.00
82245;BME280;71849;50.096;14.458;2023-08-30T00:54:06;98727.44;;;16.32;70.63
82245;BME280;71849;50.096;14.458;2023-08-30T00:56:32;98727.53;;;16.56;70.35
82245;BME280;71849;50.096;14.458;2023-08-30T00:58:59;98727.69;;;16.69;70.07
82245;BME280;71849;50.096;14.458;2023-08-30T01:01:25;98729.97;;;16.62;70.45
82245;BME280;71849;50.096;14.458;2023-08-30T01:03:51;98715.19;;;16.48;70.45
82245;BME280;71849;50.096;14.458;2023-08-30T01:06:16;98713.19;;;16.64;70.36
82245;BME280;71849;50.096;14.458;2023-08-30T01:08:42;98717.75;;;16.01;72.76
82245;BME280;71849;50.096;14.458;2023-08-30T01:11:30;98718.53;;;16.45;71.14
82245;BME280;71849;50.096;14.458;2023-08-30T01:14:03;98715.09;;;16.63;70.44
82245;BME280;71849;50.096;14.458;2023-08-30T01:16:30;98709.34;;;16.60;70.22
82245;BME280;71849;50.096;14.458;2023-08-30T01:18:58;98709.84;;;16.67;69.90
82245;BME280;71849;50.096;14.458;2023-08-30T01:21:47;98714.84;;;16.60;70.33
82245;BME280;71849;50.096;14.458;2023-08-30T01:24:23;98715.25;;;16.43;70.81
82245;BME280;71849;50.096;14.458;2023-08-30T01:27:07;98706.34;;;16.61;70.46
82245;BME280;71849;50.096;14.458;2023-08-30T01:29:33;98702.59;;;16.47;70.79
82245;BME280;71849;50.096;14.458;2023-08-30T01:32:00;98706.75;;;16.39;70.94
82245;BME280;71849;50.096;14.458;2023-08-30T01:34:26;98701.53;;;16.43;70.52
82245;BME280;71849;50.096;14.458;2023-08-30T01:36:52;98700.63;;;16.53;70.59
82245;BME280;71849;50.096;14.458;2023-08-30T01:39:18;98698.47;;;16.45;70.37
82245;BME280;71849;50.096;14.458;2023-08-30T01:41:46;98695.06;;;16.29;71.38
82245;BME280;71849;50.096;14.458;2023-08-30T01:44:13;98694.69;;;16.40;71.33
82245;BME280;71849;50.096;14.458;2023-08-30T01:46:41;98703.38;;;16.53;70.78
82245;BME280;71849;50.096;14.458;2023-08-30T01:49:08;98706.25;;;16.37;71.11
82245;BME280;71849;50.096;14.458;2023-08-30T01:51:34;98700.69;;;16.42;70.91
82245;BME280;71849;50.096;14.458;2023-08-30T01:54:00;98700.59;;;16.19;71.44
82245;BME280;71849;50.096;14.458;2023-08-30T01:56:27;98694.25;;;16.23;71.50
82245;BME280;71849;50.096;14.458;2023-08-30T01:58:53;98699.16;;;16.31;71.33
82245;BME280;71849;50.096;14.458;2023-08-30T02:01:18;98701.69;;;16.23;71.20
82245;BME280;71849;50.096;14.458;2023-08-30T02:03:44;98697.19;;;16.37;71.41
82245;BME280;71849;50.096;14.458;2023-08-30T02:06:19;98697.44;;;16.40;71.45
82245;BME280;71849;50.096;14.458;2023-08-30T02:08:55;98693.94;;;16.30;71.36
82245;BME280;71849;50.096;14.458;2023-08-30T02:11:25;98693.41;;;16.28;71.50
82245;BME280;71849;50.096;14.458;2023-08-30T02:13:52;98682.91;;;16.35;71.27
82245;BME280;71849;50.096;14.458;2023-08-30T02:16:19;98693.22;;;16.48;71.03
82245;BME280;71849;50.096;14.458;2023-08-30T02:18:45;98698.44;;;16.16;71.85
82245;BME280;71849;50.096;14.458;2023-08-30T02:21:11;98692.38;;;15.75;73.85
82245;BME280;71849;50.096;14.458;2023-08-30T02:23:36;98697.09;;;16.13;72.80
82245;BME280;71849;50.096;14.458;2023-08-30T02:26:02;98696.16;;;16.28;72.12
82245;BME280;71849;50.096;14.458;2023-08-30T02:28:29;98690.94;;;16.26;71.74
82245;BME280;71849;50.096;14.458;2023-08-30T02:30:54;98687.44;;;16.16;72.02
82245;BME280;71849;50.096;14.458;2023-08-30T02:33:20;98686.00;;;16.23;72.34
82245;BME280;71849;50.096;14.458;2023-08-30T02:35:45;98686.63;;;16.15;72.50
82245;BME280;71849;50.096;14.458;2023-08-30T02:38:11;98684.75;;;16.11;72.10
82245;BME280;71849;50.096;14.458;2023-08-30T02:40:36;98684.41;;;15.78;73.24
82245;BME280;71849;50.096;14.458;2023-08-30T02:43:02;98692.00;;;15.92;73.19
82245;BME280;71849;50.096;14.458;2023-08-30T02:45:27;98691.91;;;16.07;72.96
82245;BME280;71849;50.096;14.458;2023-08-30T02:47:56;98686.25;;;16.27;71.85
82245;BME280;71849;50.096;14.458;2023-08-30T02:50:24;98691.94;;;16.40;71.50
82245;BME280;71849;50.096;14.458;2023-08-30T02:52:50;98690.13;;;15.82;73.21
82245;BME280;71849;50.096;14.458;2023-08-30T02:55:16;98699.31;;;16.06;72.38
82245;BME280;71849;50.096;14.458;2023-08-30T02:57:41;98698.00;;;16.37;71.32
82245;BME280;71849;50.096;14.458;2023-08-30T03:00:07;98691.31;;;16.49;70.99
82245;BME280;71849;50.096;14.458;2023-08-30T03:02:34;98693.47;;;16.52;70.74
82245;BME280;71849;50.096;14.458;2023-08-30T03:04:59;98692.22;;;16.00;72.22
82245;BME280;71849;50.096;14.458;2023-08-30T03:07:25;98701.91;;;16.31;71.63
82245;BME280;71849;50.096;14.458;2023-08-30T03:09:54;98696.91;;;16.33;71.49
82245;BME280;71849;50.096;14.458;2023-08-30T03:12:19;98696.75;;;16.54;70.90
82245;BME280;71849;50.096;14.458;2023-08-30T03:14:45;98704.16;;;16.58;70.39
82245;BME280;71849;50.096;14.458;2023-08-30T03:17:11;98709.00;;;16.71;70.19
82245;BME280;71849;50.096;14.458;2023-08-30T03:19:36;98704.22;;;16.48;71.01
82245;BME280;71849;50.096;14.458;2023-08-30T03:22:02;98699.78;;;16.52;70.74
82245;BME280;71849;50.096;14.458;2023-08-30T03:24:27;98707.19;;;16.23;71.20
82245;BME280;71849;50.096;14.458;2023-08-30T03:26:52;98704.66;;;16.26;70.94
82245;BME280;71849;50.096;14.458;2023-08-30T03:29:18;98721.75;;;16.18;71.37
82245;BME280;71849;50.096;14.458;2023-08-30T03:31:43;98710.78;;;16.52;70.35
82245;BME280;71849;50.096;14.458;2023-08-30T03:34:09;98715.44;;;16.52;70.19
82245;BME280;71849;50.096;14.458;2023-08-30T03:36:34;98715.44;;;16.57;69.77
82245;BME280;71849;50.096;14.458;2023-08-30T03:39:00;98718.16;;;16.62;69.83
82245;BME280;71849;50.096;14.458;2023-08-30T03:41:25;98719.69;;;16.73;69.57
82245;BME280;71849;50.096;14.458;2023-08-30T03:43:51;98718.38;;;16.31;70.91
82245;BME280;71849;50.096;14.458;2023-08-30T03:46:16;98722.28;;;16.20;71.16
82245;BME280;71849;50.096;14.458;2023-08-30T03:48:42;98719.66;;;16.39;71.19
82245;BME280;71849;50.096;14.458;2023-08-30T03:51:07;98719.25;;;16.61;70.15
82245;BME280;71849;50.096;14.458;2023-08-30T03:53:33;98714.28;;;16.63;70.21
82245;BME280;71849;50.096;14.458;2023-08-30T03:55:58;98714.44;;;16.76;69.83
82245;BME280;71849;50.096;14.458;2023-08-30T03:58:24;98713.38;;;16.72;69.79
82245;BME280;71849;50.096;14.458;2023-08-30T04:00:50;98712.19;;;16.50;70.81
82245;BME280;71849;50.096;14.458;2023-08-30T04:03:15;98710.28;;;16.45;70.04
82245;BME280;71849;50.096;14.458;2023-08-30T04:05:41;98717.44;;;16.46;70.25
82245;BME280;71849;50.096;14.458;2023-08-30T04:08:07;98720.44;;;16.45;70.13
82245;BME280;71849;50.096;14.458;2023-08-30T04:10:37;98722.59;;;16.53;69.83
82245;BME280;71849;50.096;14.458;2023-08-30T04:13:03;98718.44;;;16.60;69.97
82245;BME280;71849;50.096;14.458;2023-08-30T04:15:28;98725.72;;;16.36;69.80
82245;BME280;71849;50.096;14.458;2023-08-30T04:17:54;98717.34;;;16.22;70.37
82245;BME280;71849;50.096;14.458;2023-08-30T04:20:19;98719.41;;;16.35;70.11
82245;BME280;71849;50.096;14.458;2023-08-30T04:22:44;98720.09;;;16.22;70.26
82245;BME280;71849;50.096;14.458;2023-08-30T04:25:10;98727.84;;;16.49;69.88
82245;BME280;71849;50.096;14.458;2023-08-30T04:27:36;98721.84;;;16.42;69.42
82245;BME280;71849;50.096;14.458;2023-08-30T04:30:02;98725.41;;;16.42;69.62
82245;BME280;71849;50.096;14.458;2023-08-30T04:32:27;98724.81;;;16.56;69.12
82245;BME280;71849;50.096;14.458;2023-08-30T04:34:53;98725.97;;;16.39;69.63
82245;BME280;71849;50.096;14.458;2023-08-30T04:37:18;98722.41;;;16.39;69.61
82245;BME280;71849;50.096;14.458;2023-08-30T04:39:47;98727.88;;;16.05;70.65
82245;BME280;71849;50.096;14.458;2023-08-30T04:42:13;98733.19;;;15.92;71.53
82245;BME280;71849;50.096;14.458;2023-08-30T04:44:38;98723.94;;;15.77;71.91
82245;BME280;71849;50.096;14.458;2023-08-30T04:47:04;98732.59;;;15.95;71.67
82245;BME280;71849;50.096;14.458;2023-08-30T04:49:29;98739.31;;;15.73;72.22
82245;BME280;71849;50.096;14.458;2023-08-30T04:51:55;98730.69;;;15.95;71.21
82245;BME280;71849;50.096;14.458;2023-08-30T04:54:20;98729.34;;;15.88;71.20
82245;BME280;71849;50.096;14.458;2023-08-30T04:56:45;98728.16;;;16.04;71.06
82245;BME280;71849;50.096;14.458;2023-08-30T04:59:11;98727.50;;;15.73;72.48
82245;BME280;71849;50.096;14.458;2023-08-30T05:01:36;98736.34;;;15.65;71.88
82245;BME280;71849;50.096;14.458;2023-08-30T05:04:04;98735.47;;;15.74;71.55
82245;BME280;71849;50.096;14.458;2023-08-30T05:06:31;98729.34;;;15.93;71.39
82245;BME280;71849;50.096;14.458;2023-08-30T05:08:56;98736.91;;;15.62;72.55
82245;BME280;71849;50.096;14.458;2023-08-30T05:11:23;98733.25;;;15.76;71.67
82245;BME280;71849;50.096;14.458;2023-08-30T05:13:48;98733.78;;;15.78;72.11
82245;BME280;71849;50.096;14.458;2023-08-30T05:16:14;98734.56;;;15.84;72.01
82245;BME280;71849;50.096;14.458;2023-08-30T05:18:39;98733.91;;;16.02;71.52
82245;BME280;71849;50.096;14.458;2023-08-30T05:21:05;98735.25;;;15.61;72.00
82245;BME280;71849;50.096;14.458;2023-08-30T05:23:30;98730.31;;;15.58;72.53
82245;BME280;71849;50.096;14.458;2023-08-30T05:25:57;98735.44;;;15.79;73.08
82245;BME280;71849;50.096;14.458;2023-08-30T05:28:22;98724.38;;;15.95;72.42
82245;BME280;71849;50.096;14.458;2023-08-30T05:30:48;98729.13;;;15.79;72.24
82245;BME280;71849;50.096;14.458;2023-08-30T05:33:13;98736.34;;;16.14;72.29
82245;BME280;71849;50.096;14.458;2023-08-30T05:35:41;98727.34;;;16.03;71.86
82245;BME280;71849;50.096;14.458;2023-08-30T05:38:06;98739.75;;;15.96;71.74
82245;BME280;71849;50.096;14.458;2023-08-30T05:40:31;98733.25;;;15.76;72.04
82245;BME280;71849;50.096;14.458;2023-08-30T05:42:57;98733.75;;;15.89;71.54
82245;BME280;71849;50.096;14.458;2023-08-30T05:45:22;98733.28;;;15.71;71.47
82245;BME280;71849;50.096;14.458;2023-08-30T05:47:48;98735.69;;;15.83;71.65
82245;BME280;71849;50.096;14.458;2023-08-30T05:50:13;98734.41;;;15.60;72.43
82245;BME280;71849;50.096;14.458;2023-08-30T05:52:39;98738.69;;;15.87;71.81
82245;BME280;71849;50.096;14.458;2023-08-30T05:55:07;98745.81;;;15.88;72.84
82245;BME280;71849;50.096;14.458;2023-08-30T05:57:33;98754.41;;;15.66;72.98
82245;BME280;71849;50.096;14.458;2023-08-30T05:59:59;98749.16;;;15.79;71.53
82245;BME280;71849;50.096;14.458;2023-08-30T06:02:25;98755.72;;;15.78;71.91
82245;BME280;71849;50.096;14.458;2023-08-30T06:04:50;98756.91;;;15.57;72.54
82245;BME280;71849;50.096;14.458;2023-08-30T06:07:16;98757.47;;;15.54;73.15
82245;BME280;71849;50.096;14.458;2023-08-30T06:09:44;98760.41;;;15.78;72.46
82245;BME280;71849;50.096;14.458;2023-08-30T06:12:09;98759.63;;;15.67;72.67
82245;BME280;71849;50.096;14.458;2023-08-30T06:14:36;98759.00;;;15.85;72.78
82245;BME280;71849;50.096;14.458;2023-08-30T06:17:02;98760.28;;;16.03;71.95
82245;BME280;71849;50.096;14.458;2023-08-30T06:19:27;98760.91;;;15.85;72.25
82245;BME280;71849;50.096;14.458;2023-08-30T06:21:53;98756.44;;;15.99;71.96
82245;BME280;71849;50.096;14.458;2023-08-30T06:24:18;98753.50;;;15.85;72.23
82245;BME280;71849;50.096;14.458;2023-08-30T06:26:44;98746.44;;;15.69;73.39
82245;BME280;71849;50.096;14.458;2023-08-30T06:29:09;98751.09;;;15.69;73.33
82245;BME280;71849;50.096;14.458;2023-08-30T06:31:35;98750.81;;;15.80;73.82
82245;BME280;71849;50.096;14.458;2023-08-30T06:34:00;98758.22;;;15.80;73.76
82245;BME280;71849;50.096;14.458;2023-08-30T06:36:28;98760.31;;;15.98;73.35
82245;BME280;71849;50.096;14.458;2023-08-30T06:38:53;98756.19;;;16.01;73.10
82245;BME280;71849;50.096;14.458;2023-08-30T06:41:19;98758.91;;;16.01;73.44
82245;BME280;71849;50.096;14.458;2023-08-30T06:43:47;98758.22;;;16.29;71.60
82245;BME280;71849;50.096;14.458;2023-08-30T06:46:12;98757.34;;;15.90;73.33
82245;BME280;71849;50.096;14.458;2023-08-30T06:48:37;98761.63;;;16.11;72.83
82245;BME280;71849;50.096;14.458;2023-08-30T06:51:03;98770.72;;;15.96;72.52
82245;BME280;71849;50.096;14.458;2023-08-30T06:53:28;98774.06;;;15.88;73.52
82245;BME280;71849;50.096;14.458;2023-08-30T06:56:01;98768.94;;;16.20;73.10
82245;BME280;71849;50.096;14.458;2023-08-30T06:58:26;98769.38;;;15.99;73.42
82245;BME280;71849;50.096;14.458;2023-08-30T07:00:52;98775.03;;;16.12;73.24
82245;BME280;71849;50.096;14.458;2023-08-30T07:03:18;98768.06;;;15.81;73.21
82245;BME280;71849;50.096;14.458;2023-08-30T07:05:43;98769.63;;;15.97;72.85
82245;BME280;71849;50.096;14.458;2023-08-30T07:08:09;98776.91;;;16.22;72.60
82245;BME280;71849;50.096;14.458;2023-08-30T07:10:36;98762.88;;;15.79;73.36
82245;BME280;71849;50.096;14.458;2023-08-30T07:13:01;98770.50;;;15.93;73.78
82245;BME280;71849;50.096;14.458;2023-08-30T07:15:27;98767.69;;;16.03;73.39
82245;BME280;71849;50.096;14.458;2023-08-30T07:17:52;98770.28;;;15.79;73.71
82245;BME280;71849;50.096;14.458;2023-08-30T07:20:18;98776.72;;;16.08;73.13
82245;BME280;71849;50.096;14.458;2023-08-30T07:22:43;98771.81;;;16.00;72.79
82245;BME280;71849;50.096;14.458;2023-08-30T07:25:09;98764.94;;;16.03;72.60
82245;BME280;71849;50.096;14.458;2023-08-30T07:27:36;98766.84;;;16.02;72.35
82245;BME280;71849;50.096;14.458;2023-08-30T07:30:01;98768.47;;;16.08;72.54
82245;BME280;71849;50.096;14.458;2023-08-30T07:32:27;98767.59;;;16.18;72.51
82245;BME280;71849;50.096;14.458;2023-08-30T07:34:53;98767.03;;;16.21;71.81
82245;BME280;71849;50.096;14.458;2023-08-30T07:37:20;98768.53;;;16.47;71.32
82245;BME280;71849;50.096;14.458;2023-08-30T07:39:46;98774.81;;;16.48;71.48
82245;BME280;71849;50.096;14.458;2023-08-30T07:42:11;98769.88;;;16.06;71.34
82245;BME280;71849;50.096;14.458;2023-08-30T07:44:37;98772.88;;;16.53;70.64
82245;BME280;71849;50.096;14.458;2023-08-30T07:47:02;98779.56;;;16.81;70.21
82245;BME280;71849;50.096;14.458;2023-08-30T07:49:29;98768.69;;;16.94;69.44
82245;BME280;71849;50.096;14.458;2023-08-30T07:51:54;98775.97;;;16.80;69.39
82245;BME280;71849;50.096;14.458;2023-08-30T07:54:20;98770.72;;;16.84;69.54
82245;BME280;71849;50.096;14.458;2023-08-30T07:56:45;98770.56;;;16.70;69.27
82245;BME280;71849;50.096;14.458;2023-08-30T07:59:12;98771.13;;;17.01;68.67
82245;BME280;71849;50.096;14.458;2023-08-30T08:01:38;98777.81;;;16.90;67.99
82245;BME280;71849;50.096;14.458;2023-08-30T08:04:03;98782.59;;;17.08;68.87
82245;BME280;71849;50.096;14.458;2023-08-30T08:06:52;98782.22;;;17.20;67.46
82245;BME280;71849;50.096;14.458;2023-08-30T08:09:26;98778.78;;;17.04;67.62
82245;BME280;71849;50.096;14.458;2023-08-30T08:11:53;98790.13;;;17.26;66.82
82245;BME280;71849;50.096;14.458;2023-08-30T08:14:18;98781.06;;;17.49;66.63
82245;BME280;71849;50.096;14.458;2023-08-30T08:16:44;98785.25;;;17.71;66.61
82245;BME280;71849;50.096;14.458;2023-08-30T08:19:09;98787.91;;;17.99;64.77
82245;BME280;71849;50.096;14.458;2023-08-30T08:21:35;98783.84;;;18.16;64.11
82245;BME280;71849;50.096;14.458;2023-08-30T08:24:00;98780.84;;;18.12;64.36
82245;BME280;71849;50.096;14.458;2023-08-30T08:26:26;98779.31;;;18.25;63.24
82245;BME280;71849;50.096;14.458;2023-08-30T08:28:51;98782.56;;;17.66;64.99
82245;BME280;71849;50.096;14.458;2023-08-30T08:31:17;98783.00;;;17.49;65.50
82245;BME280;71849;50.096;14.458;2023-08-30T08:33:43;98790.41;;;17.77;64.31
82245;BME280;71849;50.096;14.458;2023-08-30T08:36:09;98787.81;;;17.86;64.12
82245;BME280;71849;50.096;14.458;2023-08-30T08:38:34;98789.19;;;18.07;63.32
82245;BME280;71849;50.096;14.458;2023-08-30T08:41:05;98794.91;;;17.68;64.33
82245;BME280;71849;50.096;14.458;2023-08-30T08:43:32;98795.44;;;17.70;64.58
82245;BME280;71849;50.096;14.458;2023-08-30T08:46:00;98795.53;;;17.60;64.88
82245;BME280;71849;50.096;14.458;2023-08-30T08:48:31;98794.16;;;17.63;64.47
82245;BME280;71849;50.096;14.458;2023-08-30T08:50:59;98789.00;;;17.80;64.73
82245;BME280;71849;50.096;14.458;2023-08-30T08:53:28;98792.66;;;17.94;63.94
82245;BME280;71849;50.096;14.458;2023-08-30T08:55:55;98792.31;;;18.00;64.60
82245;BME280;71849;50.096;14.458;2023-08-30T08:58:23;98785.44;;;18.59;62.78
82245;BME280;71849;50.096;14.458;2023-08-30T09:00:49;98787.47;;;18.53;62.27
82245;BME280;71849;50.096;14.458;2023-08-30T09:03:15;98787.47;;;18.53;62.57
82245;BME280;71849;50.096;14.458;2023-08-30T09:05:42;98797.34;;;18.73;61.81
82245;BME280;71849;50.096;14.458;2023-08-30T09:08:10;98791.81;;;18.92;60.92
82245;BME280;71849;50.096;14.458;2023-08-30T09:10:37;98800.47;;;18.67;61.43
82245;BME280;71849;50.096;14.458;2023-08-30T09:13:04;98795.97;;;19.22;60.19
82245;BME280;71849;50.096;14.458;2023-08-30T09:15:33;98796.59;;;18.86;59.83
82245;BME280;71849;50.096;14.458;2023-08-30T09:17:58;98794.69;;;19.00;59.76
82245;BME280;71849;50.096;14.458;2023-08-30T09:20:24;98803.44;;;18.89;61.60
82245;BME280;71849;50.096;14.458;2023-08-30T09:22:49;98801.06;;;18.45;62.61
82245;BME280;71849;50.096;14.458;2023-08-30T09:25:28;98798.53;;;18.30;61.41
82245;BME280;71849;50.096;14.458;2023-08-30T09:27:58;98792.75;;;18.50;61.03
82245;BME280;71849;50.096;14.458;2023-08-30T09:30:24;98801.28;;;18.67;61.41
82245;BME280;71849;50.096;14.458;2023-08-30T09:32:50;98798.59;;;18.99;60.04
82245;BME280;71849;50.096;14.458;2023-08-30T09:35:16;98799.69;;;18.98;60.46
82245;BME280;71849;50.096;14.458;2023-08-30T09:37:44;98798.00;;;19.16;59.26
82245;BME280;71849;50.096;14.458;2023-08-30T09:40:10;98791.94;;;19.00;59.45
82245;BME280;71849;50.096;14.458;2023-08-30T09:42:40;98807.66;;;19.00;58.54
82245;BME280;71849;50.096;14.458;2023-08-30T09:45:21;98806.25;;;19.02;59.16
82245;BME280;71849;50.096;14.458;2023-08-30T09:47:50;98800.03;;;19.43;57.15
82245;BME280;71849;50.096;14.458;2023-08-30T09:50:19;98801.41;;;20.00;55.66
82245;BME280;71849;50.096;14.458;2023-08-30T09:52:49;98805.72;;;19.33;57.01
82245;BME280;71849;50.096;14.458;2023-08-30T09:55:18;98808.66;;;19.23;57.70
82245;BME280;71849;50.096;14.458;2023-08-30T10:00:30;98789.84;;;19.25;57.88
82245;BME280;71849;50.096;14.458;2023-08-30T10:02:58;98797.19;;;19.16;58.28
82245;BME280;71849;50.096;14.458;2023-08-30T10:05:27;98801.97;;;18.78;59.57
82245;BME280;71849;50.096;14.458;2023-08-30T10:07:54;98795.38;;;19.25;59.10
82245;BME280;71849;50.096;14.458;2023-08-30T10:10:22;98800.25;;;19.14;59.06
82245;BME280;71849;50.096;14.458;2023-08-30T10:12:49;98791.91;;;19.33;58.16
82245;BME280;71849;50.096;14.458;2023-08-30T10:15:14;98798.81;;;19.17;58.87
82245;BME280;71849;50.096;14.458;2023-08-30T10:17:45;98805.78;;;19.28;57.46
82245;BME280;71849;50.096;14.458;2023-08-30T10:20:11;98810.31;;;18.73;58.50
82245;BME280;71849;50.096;14.458;2023-08-30T10:22:38;98799.34;;;18.86;58.09
82245;BME280;71849;50.096;14.458;2023-08-30T10:25:11;98796.69;;;18.63;59.40
82245;BME280;71849;50.096;14.458;2023-08-30T10:27:43;98805.09;;;18.71;60.42
82245;BME280;71849;50.096;14.458;2023-08-30T10:30:11;98802.44;;;18.66;59.82
82245;BME280;71849;50.096;14.458;2023-08-30T10:32:44;98805.69;;;18.68;59.92
82245;BME280;71849;50.096;14.458;2023-08-30T10:35:18;98804.38;;;18.98;59.19
82245;BME280;71849;50.096;14.458;2023-08-30T10:37:57;98796.41;;;19.29;56.59
82245;BME280;71849;50.096;14.458;2023-08-30T10:40:24;98787.81;;;19.30;57.39
82245;BME280;71849;50.096;14.458;2023-08-30T10:43:02;98793.53;;;19.34;56.75
82245;BME280;71849;50.096;14.458;2023-08-30T10:45:28;98799.63;;;18.85;57.39
82245;BME280;71849;50.096;14.458;2023-08-30T10:47:56;98798.91;;;18.79;58.03
82245;BME280;71849;50.096;14.458;2023-08-30T10:50:28;98800.91;;;18.92;58.05
82245;BME280;71849;50.096;14.458;2023-08-30T10:52:55;98797.41;;;18.87;57.82
82245;BME280;71849;50.096;14.458;2023-08-30T10:55:22;98807.13;;;19.62;55.76
82245;BME280;71849;50.096;14.458;2023-08-30T10:57:58;98792.28;;;19.99;54.89
82245;BME280;71849;50.096;14.458;2023-08-30T11:00:24;98789.81;;;19.98;55.75
82245;BME280;71849;50.096;14.458;2023-08-30T11:02:51;98785.72;;;20.09;54.03
82245;BME280;71849;50.096;14.458;2023-08-30T11:05:18;98788.50;;;20.09;54.53
82245;BME280;71849;50.096;14.458;2023-08-30T11:07:44;98782.84;;;20.00;54.94
82245;BME280;71849;50.096;14.458;2023-08-30T11:10:11;98785.94;;;19.58;56.10
82245;BME280;71849;50.096;14.458;2023-08-30T11:12:36;98792.13;;;18.90;57.58
82245;BME280;71849;50.096;14.458;2023-08-30T11:15:03;98788.72;;;19.26;56.75
82245;BME280;71849;50.096;14.458;2023-08-30T11:17:29;98776.84;;;19.71;55.15
82245;BME280;71849;50.096;14.458;2023-08-30T11:20:08;98780.75;;;19.24;56.71
82245;BME280;71849;50.096;14.458;2023-08-30T11:22:39;98782.22;;;19.35;55.40
82245;BME280;71849;50.096;14.458;2023-08-30T11:25:05;98778.88;;;19.52;56.07
82245;BME280;71849;50.096;14.458;2023-08-30T11:27:30;98766.53;;;20.40;52.17
82245;BME280;71849;50.096;14.458;2023-08-30T11:30:02;98771.69;;;20.91;50.93
82245;BME280;71849;50.096;14.458;2023-08-30T11:32:38;98772.94;;;20.85;51.53
82245;BME280;71849;50.096;14.458;2023-08-30T11:35:04;98760.66;;;20.77;52.08
82245;BME280;71849;50.096;14.458;2023-08-30T11:37:31;98755.75;;;20.96;51.71
82245;BME280;71849;50.096;14.458;2023-08-30T11:39:57;98768.72;;;21.40;50.85
82245;BME280;71849;50.096;14.458;2023-08-30T11:42:23;98759.69;;;21.57;49.76
82245;BME280;71849;50.096;14.458;2023-08-30T11:44:52;98759.47;;;21.45;50.67
82245;BME280;71849;50.096;14.458;2023-08-30T11:47:22;98761.91;;;20.71;52.05
82245;BME280;71849;50.096;14.458;2023-08-30T11:49:48;98766.34;;;20.94;51.58
82245;BME280;71849;50.096;14.458;2023-08-30T11:52:16;98762.75;;;19.45;55.62
82245;BME280;71849;50.096;14.458;2023-08-30T11:54:43;98761.59;;;19.87;54.66
82245;BME280;71849;50.096;14.458;2023-08-30T11:57:09;98763.81;;;20.26;53.90
82245;BME280;71849;50.096;14.458;2023-08-30T11:59:35;98762.22;;;20.47;53.11
82245;BME280;71849;50.096;14.458;2023-08-30T12:02:04;98755.41;;;20.67;52.46
82245;BME280;71849;50.096;14.458;2023-08-30T12:04:39;98756.25;;;20.18;54.40
82245;BME280;71849;50.096;14.458;2023-08-30T12:07:05;98746.09;;;20.13;54.04
82245;BME280;71849;50.096;14.458;2023-08-30T12:09:33;98752.94;;;19.67;55.02
82245;BME280;71849;50.096;14.458;2023-08-30T12:12:10;98751.78;;;19.68;55.02
82245;BME280;71849;50.096;14.458;2023-08-30T12:14:36;98752.81;;;20.48;53.40
82245;BME280;71849;50.096;14.458;2023-08-30T12:17:02;98748.53;;;20.42;52.46
82245;BME280;71849;50.096;14.458;2023-08-30T12:19:31;98747.47;;;20.74;52.21
82245;BME280;71849;50.096;14.458;2023-08-30T12:22:03;98745.97;;;20.68;50.34
82245;BME280;71849;50.096;14.458;2023-08-30T12:24:45;98745.03;;;20.73;49.38
82245;BME280;71849;50.096;14.458;2023-08-30T12:27:10;98736.56;;;21.61;48.14
82245;BME280;71849;50.096;14.458;2023-08-30T12:29:36;98730.22;;;22.00;47.56
82245;BME280;71849;50.096;14.458;2023-08-30T12:32:03;98733.41;;;21.85;47.65
82245;BME280;71849;50.096;14.458;2023-08-30T12:34:28;98737.88;;;22.03;47.00
82245;BME280;71849;50.096;14.458;2023-08-30T12:36:54;98736.13;;;22.16;46.70
82245;BME280;71849;50.096;14.458;2023-08-30T12:39:21;98734.31;;;22.80;45.85
82245;BME280;71849;50.096;14.458;2023-08-30T12:48:31;98723.53;;;21.62;48.90
82245;BME280;71849;50.096;14.458;2023-08-30T12:51:17;98712.13;;;21.94;47.11
82245;BME280;71849;50.096;14.458;2023-08-30T13:11:46;98709.19;;;22.08;46.90
82245;BME280;71849;50.096;14.458;2023-08-30T13:14:39;98715.72;;;22.29;46.81
82245;BME280;71849;50.096;14.458;2023-08-30T13:41:48;98700.56;;;22.01;46.48